createdAt,value
2018-08-23T00:02:50.496Z,27.43
2018-08-23T00:08:06.509Z,27.77
2018-08-23T00:13:15.809Z,27.30
2018-08-23T00:18:22.058Z,29.40
2018-08-23T00:23:30.897Z,30.20
2018-08-23T00:28:41.400Z,30.93
2018-08-23T00:33:52.685Z,30.93
2018-08-23T00:38:58.975Z,31.27
2018-08-23T00:44:04.950Z,34.07
2018-08-23T00:54:26.839Z,37.27
2018-08-23T00:59:36.301Z,36.77
2018-08-23T01:04:50.266Z,39.83
2018-08-23T01:09:57.781Z,40.37
2018-08-23T01:31:48.020Z,42.27
2018-08-23T01:42:35.206Z,44.23
2018-08-23T01:47:47.531Z,40.10
2018-08-23T01:53:02.931Z,40.37
2018-08-23T01:58:10.142Z,39.40
2018-08-23T02:03:17.857Z,40.93
2018-08-23T02:08:29.368Z,42.80
2018-08-23T02:13:36.573Z,43.37
2018-08-23T02:18:56.085Z,47.60
2018-08-23T02:24:02.040Z,42.57
2018-08-23T02:29:08.031Z,41.77
2018-08-23T02:34:38.070Z,42.93
2018-08-23T02:39:47.839Z,39.83
2018-08-23T02:45:08.667Z,36.70
2018-08-23T02:50:21.197Z,45.33
2018-08-23T02:55:27.072Z,47.03
2018-08-23T03:00:39.465Z,43.33
2018-08-23T03:05:45.276Z,41.63
2018-08-23T03:10:57.911Z,41.90
2018-08-23T03:16:08.191Z,45.43
2018-08-23T03:26:53.326Z,46.60
2018-08-23T03:31:59.305Z,49.20
2018-08-23T03:37:05.488Z,48.20
2018-08-23T03:42:13.309Z,50.30
2018-08-23T03:52:54.453Z,48.53
2018-08-23T03:58:02.680Z,56.17
2018-08-23T04:03:11.446Z,59.87
2018-08-23T04:08:16.011Z,60.60
2018-08-23T04:13:20.915Z,58.80
2018-08-23T04:18:25.762Z,56.23
2018-08-23T04:23:30.270Z,51.30
2018-08-23T04:28:35.574Z,57.70
2018-08-23T04:33:40.237Z,60.33
2018-08-23T04:38:49.441Z,59.10
2018-08-23T04:43:58.967Z,61.10
2018-08-23T04:49:06.565Z,57.17
2018-08-23T04:54:11.381Z,62.00
2018-08-23T04:59:16.441Z,65.33
2018-08-23T05:04:21.067Z,66.33
2018-08-23T05:09:25.769Z,66.53
2018-08-23T05:14:30.481Z,63.40
2018-08-23T05:19:35.201Z,63.47
2018-08-23T05:24:40.420Z,62.33
2018-08-23T05:29:45.264Z,60.97
2018-08-23T05:34:50.336Z,60.97
2018-08-23T05:39:54.804Z,61.20
2018-08-23T05:44:59.407Z,61.77
2018-08-23T05:50:03.910Z,63.37
2018-08-23T05:55:08.594Z,62.77
2018-08-23T06:00:13.324Z,64.23
2018-08-23T06:05:17.905Z,61.20
2018-08-23T06:10:23.289Z,63.87
2018-08-23T06:15:27.828Z,61.70
2018-08-23T06:20:32.531Z,61.43
2018-08-23T06:25:37.045Z,60.40
2018-08-23T06:30:41.510Z,57.10
2018-08-23T06:35:47.321Z,60.60
2018-08-23T06:40:51.641Z,61.40
2018-08-23T06:45:56.410Z,61.27
2018-08-23T06:51:01.778Z,60.23
2018-08-23T06:56:06.477Z,61.10
2018-08-23T07:01:21.178Z,62.70
2018-08-23T07:06:25.706Z,63.40
2018-08-23T07:11:30.248Z,62.07
2018-08-23T07:16:34.700Z,67.30
2018-08-23T07:21:39.160Z,69.00
2018-08-23T07:26:43.660Z,68.13
2018-08-23T07:31:59.033Z,69.60
2018-08-23T07:37:17.019Z,68.33
2018-08-23T07:42:21.540Z,66.43
2018-08-23T07:47:26.451Z,68.83
2018-08-23T07:52:32.066Z,65.20
2018-08-23T07:57:37.293Z,66.70
2018-08-23T08:02:42.106Z,67.17
2018-08-23T08:07:47.717Z,62.13
2018-08-23T08:12:54.080Z,65.40
2018-08-23T08:18:06.297Z,62.70
2018-08-23T08:23:10.788Z,61.47
2018-08-23T08:28:17.694Z,59.20
2018-08-23T08:33:23.162Z,63.57
2018-08-23T08:38:28.062Z,63.87
2018-08-23T08:43:32.547Z,63.43
2018-08-23T08:48:37.420Z,62.27
2018-08-23T08:53:42.342Z,59.10
2018-08-23T08:58:46.885Z,58.47
2018-08-23T09:03:51.499Z,57.93
2018-08-23T09:08:56.009Z,55.30
2018-08-23T09:14:02.440Z,56.27
2018-08-23T09:19:07.224Z,57.70
2018-08-23T09:24:24.706Z,56.20
2018-08-23T09:29:35.776Z,56.17
2018-08-23T09:34:40.943Z,57.87
2018-08-23T09:39:46.612Z,56.80
2018-08-23T09:45:04.845Z,54.63
2018-08-23T09:50:10.865Z,54.93
2018-08-23T09:55:17.367Z,56.60
2018-08-23T10:00:30.677Z,59.43
2018-08-23T10:05:44.756Z,55.27
2018-08-23T10:10:55.103Z,52.50
2018-08-23T10:16:04.537Z,53.43
2018-08-23T10:21:09.072Z,51.23
2018-08-23T10:26:28.632Z,49.97
2018-08-23T10:31:33.069Z,42.93
2018-08-23T10:36:37.529Z,50.60
2018-08-23T10:41:42.246Z,51.33
2018-08-23T10:46:51.925Z,43.33
2018-08-23T10:51:56.447Z,44.03
2018-08-23T10:57:01.004Z,42.27
2018-08-23T11:02:05.479Z,43.10
2018-08-23T11:07:09.933Z,39.07
2018-08-23T11:12:19.811Z,34.97
2018-08-23T11:17:29.297Z,35.90
2018-08-23T11:22:39.588Z,32.97
2018-08-23T11:27:44.147Z,32.23
2018-08-23T11:32:49.192Z,23.23
2018-08-23T11:37:54.325Z,26.57
2018-08-23T11:42:58.847Z,29.90
2018-08-23T11:48:04.212Z,25.20
2018-08-23T11:53:08.771Z,18.87
2018-08-23T11:58:13.384Z,22.50
2018-08-23T12:03:18.596Z,19.63
2018-08-23T12:08:23.373Z,24.97
2018-08-23T12:13:27.982Z,23.97
2018-08-23T12:18:37.587Z,19.73
2018-08-23T12:23:42.115Z,20.90
2018-08-23T12:28:52.511Z,18.77
2018-08-23T12:33:59.602Z,24.07
2018-08-23T12:39:10.092Z,18.93
2018-08-23T12:44:14.697Z,16.67
2018-08-23T12:49:19.276Z,20.70
2018-08-23T12:54:23.795Z,17.40
2018-08-23T12:59:28.215Z,14.57
2018-08-23T13:04:32.706Z,13.90
2018-08-23T13:09:37.404Z,14.97
2018-08-23T13:14:41.838Z,14.70
2018-08-23T13:19:47.180Z,11.33
2018-08-23T13:24:56.726Z,11.60
2018-08-23T13:30:02.091Z,13.53
2018-08-23T13:35:06.887Z,10.83
2018-08-23T13:40:18.454Z,9.73
2018-08-23T13:45:23.003Z,9.67
2018-08-23T13:50:27.544Z,8.83
2018-08-23T13:55:31.846Z,9.37
2018-08-23T14:00:38.262Z,9.00
2018-08-23T14:05:42.852Z,8.10
2018-08-23T14:10:47.494Z,7.83
2018-08-23T14:15:57.843Z,7.47
2018-08-23T14:21:02.206Z,8.57
2018-08-23T14:26:07.115Z,7.47
2018-08-23T14:31:12.279Z,10.53
2018-08-23T14:36:16.664Z,10.63
2018-08-23T14:41:21.110Z,10.60
2018-08-23T14:46:30.731Z,9.63
2018-08-23T14:51:35.244Z,10.60
2018-08-23T14:56:45.680Z,10.47
2018-08-23T15:01:50.036Z,8.67
2018-08-23T15:06:54.602Z,9.60
2018-08-23T15:12:00.449Z,8.50
2018-08-23T15:17:04.755Z,8.47
2018-08-23T15:22:09.660Z,7.60
2018-08-23T15:27:14.259Z,6.87
2018-08-23T15:32:18.745Z,6.03
2018-08-23T15:37:23.159Z,6.10
2018-08-23T15:42:27.507Z,5.47
2018-08-23T15:47:31.991Z,4.47
2018-08-23T15:52:36.344Z,4.27
2018-08-23T15:57:41.164Z,4.00
2018-08-23T16:02:46.278Z,3.53
2018-08-23T16:07:50.562Z,3.53
2018-08-23T16:12:55.317Z,3.37
2018-08-23T16:18:04.923Z,3.57
2018-08-23T16:23:10.004Z,3.30
2018-08-23T16:28:14.374Z,3.33
2018-08-23T16:33:18.909Z,2.87
2018-08-23T16:38:23.446Z,2.90
2018-08-23T16:43:27.956Z,2.93
2018-08-23T16:48:32.367Z,3.10
2018-08-23T16:53:36.759Z,3.80
2018-08-23T16:58:41.359Z,3.20
2018-08-23T17:03:49.839Z,3.23
2018-08-23T17:08:54.504Z,3.00
2018-08-23T17:13:58.778Z,3.10
2018-08-23T17:19:03.287Z,2.97
2018-08-23T17:24:07.627Z,3.30
2018-08-23T17:29:12.022Z,3.20
2018-08-23T17:34:16.826Z,3.20
2018-08-23T17:39:21.344Z,3.60
2018-08-23T17:44:25.724Z,3.50
2018-08-23T17:49:30.862Z,3.50
2018-08-23T17:54:35.296Z,4.40
2018-08-23T17:59:39.700Z,3.90
2018-08-23T18:04:44.243Z,4.23
2018-08-23T18:09:48.748Z,4.43
2018-08-23T18:14:53.162Z,4.10
2018-08-23T18:19:57.548Z,4.37
2018-08-23T18:25:02.008Z,4.40
2018-08-23T18:30:06.672Z,4.20
2018-08-23T18:35:11.033Z,4.20
2018-08-23T18:40:15.321Z,4.80
2018-08-23T18:45:20.380Z,4.27
2018-08-23T18:50:24.892Z,5.83
2018-08-23T18:55:29.251Z,5.67
2018-08-23T19:00:33.721Z,5.60
2018-08-23T19:05:38.412Z,5.43
2018-08-23T19:10:42.776Z,5.13
2018-08-23T19:15:52.262Z,5.70
2018-08-23T19:20:56.631Z,5.97
2018-08-23T19:26:01.242Z,5.77
2018-08-23T19:31:05.822Z,6.03
2018-08-23T19:36:10.451Z,6.57
2018-08-23T19:41:14.817Z,6.30
2018-08-23T19:46:24.115Z,6.50
2018-08-23T19:51:28.643Z,6.67
2018-08-23T19:56:33.193Z,6.33
2018-08-23T20:01:37.695Z,6.30
2018-08-23T20:06:42.601Z,8.73
2018-08-23T20:11:47.041Z,7.90
2018-08-23T20:16:52.097Z,8.80
2018-08-23T20:21:57.050Z,9.33
2018-08-23T20:27:02.477Z,10.60
2018-08-23T20:32:06.975Z,9.70
2018-08-23T20:37:11.510Z,11.10
2018-08-23T20:42:15.881Z,10.87
2018-08-23T20:47:20.326Z,13.77
2018-08-23T20:52:24.755Z,13.13
2018-08-23T20:57:29.260Z,14.07
2018-08-23T21:02:33.726Z,15.20
2018-08-23T21:07:38.166Z,14.20
2018-08-23T21:12:42.629Z,13.80
2018-08-23T21:17:47.154Z,15.10
2018-08-23T21:22:52.198Z,13.20
2018-08-23T21:27:56.710Z,14.87
2018-08-23T21:33:01.079Z,14.40
2018-08-23T21:38:05.510Z,14.83
2018-08-23T21:43:09.954Z,15.83
2018-08-23T21:48:14.303Z,15.73
2018-08-23T21:53:19.099Z,16.27
2018-08-23T21:58:23.634Z,15.33
2018-08-23T22:03:28.846Z,15.77
2018-08-23T22:08:33.670Z,16.23
2018-08-23T22:13:38.078Z,16.60
2018-08-23T22:18:42.419Z,17.43
2018-08-23T22:23:46.767Z,18.13
2018-08-23T22:28:52.044Z,18.53
2018-08-23T22:33:57.043Z,19.20
2018-08-23T22:39:01.393Z,19.93
2018-08-23T22:44:05.989Z,20.70
2018-08-23T22:49:10.393Z,21.33
2018-08-23T22:54:14.912Z,23.13
2018-08-23T22:59:19.222Z,22.30
2018-08-23T23:04:29.368Z,21.80
2018-08-23T23:09:33.736Z,20.60
2018-08-23T23:14:38.227Z,19.63
2018-08-23T23:19:42.673Z,17.17
2018-08-23T23:24:52.115Z,16.30
2018-08-23T23:29:56.505Z,15.37
2018-08-23T23:35:00.943Z,12.97
2018-08-23T23:40:05.392Z,12.80
2018-08-23T23:45:09.893Z,11.63
2018-08-23T23:50:14.968Z,8.97
2018-08-23T23:55:19.338Z,9.33
